sensor_id;sensor_type;location;lat;lon;timestamp;P1;durP1;ratioP1;P2;durP2;ratioP2
51792;SDS011;37850;53.178;6.376;2023-06-26T00:01:23;11.80;;;5.88;;
51792;SDS011;37850;53.178;6.376;2023-06-26T00:03:49;8.98;;;6.18;;
51792;SDS011;37850;53.178;6.376;2023-06-26T00:06:14;10.35;;;6.32;;
51792;SDS011;37850;53.178;6.376;2023-06-26T00:08:40;9.80;;;6.45;;
51792;SDS011;37850;53.178;6.376;2023-06-26T00:11:06;10.18;;;6.80;;
51792;SDS011;37850;53.178;6.376;2023-06-26T00:13:33;9.80;;;6.47;;
51792;SDS011;37850;53.178;6.376;2023-06-26T00:15:59;9.48;;;6.53;;
51792;SDS011;37850;53.178;6.376;2023-06-26T00:18:28;8.40;;;6.07;;
51792;SDS011;37850;53.178;6.376;2023-06-26T00:20:54;10.52;;;6.00;;
51792;SDS011;37850;53.178;6.376;2023-06-26T00:23:19;10.73;;;6.70;;
51792;SDS011;37850;53.178;6.376;2023-06-26T00:25:45;10.35;;;6.57;;
51792;SDS011;37850;53.178;6.376;2023-06-26T00:28:11;9.88;;;6.90;;
51792;SDS011;37850;53.178;6.376;2023-06-26T00:30:37;9.32;;;6.28;;
51792;SDS011;37850;53.178;6.376;2023-06-26T00:33:02;9.82;;;6.55;;
51792;SDS011;37850;53.178;6.376;2023-06-26T00:35:28;9.60;;;6.13;;
51792;SDS011;37850;53.178;6.376;2023-06-26T00:37:54;9.57;;;5.97;;
51792;SDS011;37850;53.178;6.376;2023-06-26T00:40:20;8.90;;;5.88;;
51792;SDS011;37850;53.178;6.376;2023-06-26T00:42:46;11.10;;;6.15;;
51792;SDS011;37850;53.178;6.376;2023-06-26T00:45:11;9.55;;;6.38;;
51792;SDS011;37850;53.178;6.376;2023-06-26T00:47:37;9.10;;;6.13;;
51792;SDS011;37850;53.178;6.376;2023-06-26T00:50:04;10.07;;;6.55;;
51792;SDS011;37850;53.178;6.376;2023-06-26T00:52:31;9.70;;;6.50;;
51792;SDS011;37850;53.178;6.376;2023-06-26T00:54:57;10.95;;;6.22;;
51792;SDS011;37850;53.178;6.376;2023-06-26T00:57:23;10.23;;;6.63;;
51792;SDS011;37850;53.178;6.376;2023-06-26T00:59:49;9.80;;;6.10;;
51792;SDS011;37850;53.178;6.376;2023-06-26T01:02:15;10.50;;;6.68;;
51792;SDS011;37850;53.178;6.376;2023-06-26T01:04:46;9.75;;;6.80;;
51792;SDS011;37850;53.178;6.376;2023-06-26T01:07:14;11.38;;;6.82;;
51792;SDS011;37850;53.178;6.376;2023-06-26T01:09:41;9.15;;;6.65;;
51792;SDS011;37850;53.178;6.376;2023-06-26T01:12:07;12.38;;;7.05;;
51792;SDS011;37850;53.178;6.376;2023-06-26T01:14:34;9.73;;;6.38;;
51792;SDS011;37850;53.178;6.376;2023-06-26T01:17:01;11.95;;;7.60;;
51792;SDS011;37850;53.178;6.376;2023-06-26T01:19:28;12.70;;;7.70;;
51792;SDS011;37850;53.178;6.376;2023-06-26T01:24:51;10.40;;;6.50;;
51792;SDS011;37850;53.178;6.376;2023-06-26T01:27:26;10.45;;;6.63;;
51792;SDS011;37850;53.178;6.376;2023-06-26T01:29:53;10.35;;;7.22;;
51792;SDS011;37850;53.178;6.376;2023-06-26T01:32:20;10.07;;;7.07;;
51792;SDS011;37850;53.178;6.376;2023-06-26T01:34:47;11.45;;;7.47;;
51792;SDS011;37850;53.178;6.376;2023-06-26T01:37:13;10.45;;;7.40;;
51792;SDS011;37850;53.178;6.376;2023-06-26T01:39:39;11.05;;;7.38;;
51792;SDS011;37850;53.178;6.376;2023-06-26T01:42:04;10.15;;;7.47;;
51792;SDS011;37850;53.178;6.376;2023-06-26T01:44:32;11.75;;;7.78;;
51792;SDS011;37850;53.178;6.376;2023-06-26T01:47:02;10.05;;;7.40;;
51792;SDS011;37850;53.178;6.376;2023-06-26T01:54:47;12.82;;;8.30;;
51792;SDS011;37850;53.178;6.376;2023-06-26T01:57:33;9.93;;;7.57;;
51792;SDS011;37850;53.178;6.376;2023-06-26T02:00:00;11.30;;;8.15;;
51792;SDS011;37850;53.178;6.376;2023-06-26T02:02:30;12.13;;;7.72;;
51792;SDS011;37850;53.178;6.376;2023-06-26T02:04:56;14.13;;;7.97;;
51792;SDS011;37850;53.178;6.376;2023-06-26T02:07:21;14.30;;;7.57;;
51792;SDS011;37850;53.178;6.376;2023-06-26T02:09:47;10.13;;;7.22;;
51792;SDS011;37850;53.178;6.376;2023-06-26T02:12:13;10.48;;;7.10;;
51792;SDS011;37850;53.178;6.376;2023-06-26T02:14:39;11.23;;;8.05;;
51792;SDS011;37850;53.178;6.376;2023-06-26T02:17:05;16.70;;;8.07;;
51792;SDS011;37850;53.178;6.376;2023-06-26T02:19:31;10.95;;;7.65;;
51792;SDS011;37850;53.178;6.376;2023-06-26T02:21:57;11.30;;;8.15;;
51792;SDS011;37850;53.178;6.376;2023-06-26T02:24:23;11.43;;;8.57;;
51792;SDS011;37850;53.178;6.376;2023-06-26T02:26:49;12.13;;;9.07;;
51792;SDS011;37850;53.178;6.376;2023-06-26T02:29:14;10.90;;;8.70;;
51792;SDS011;37850;53.178;6.376;2023-06-26T02:31:40;12.65;;;9.15;;
51792;SDS011;37850;53.178;6.376;2023-06-26T02:34:06;13.90;;;9.18;;
51792;SDS011;37850;53.178;6.376;2023-06-26T02:36:32;18.05;;;9.95;;
51792;SDS011;37850;53.178;6.376;2023-06-26T02:38:58;13.45;;;10.15;;
51792;SDS011;37850;53.178;6.376;2023-06-26T02:41:23;15.98;;;9.93;;
51792;SDS011;37850;53.178;6.376;2023-06-26T02:43:49;12.13;;;8.35;;
51792;SDS011;37850;53.178;6.376;2023-06-26T02:46:15;14.45;;;9.00;;
51792;SDS011;37850;53.178;6.376;2023-06-26T02:48:40;12.40;;;9.32;;
51792;SDS011;37850;53.178;6.376;2023-06-26T02:51:07;14.45;;;9.40;;
51792;SDS011;37850;53.178;6.376;2023-06-26T02:53:33;13.95;;;9.05;;
51792;SDS011;37850;53.178;6.376;2023-06-26T02:55:58;13.52;;;10.15;;
51792;SDS011;37850;53.178;6.376;2023-06-26T02:58:24;14.23;;;9.50;;
51792;SDS011;37850;53.178;6.376;2023-06-26T03:00:50;13.18;;;9.82;;
51792;SDS011;37850;53.178;6.376;2023-06-26T03:03:16;12.18;;;9.00;;
51792;SDS011;37850;53.178;6.376;2023-06-26T03:05:42;13.43;;;8.98;;
51792;SDS011;37850;53.178;6.376;2023-06-26T03:08:08;15.20;;;9.43;;
51792;SDS011;37850;53.178;6.376;2023-06-26T03:10:34;14.15;;;9.85;;
51792;SDS011;37850;53.178;6.376;2023-06-26T03:12:59;13.00;;;10.13;;
51792;SDS011;37850;53.178;6.376;2023-06-26T03:15:25;12.05;;;8.98;;
51792;SDS011;37850;53.178;6.376;2023-06-26T03:17:51;13.73;;;9.50;;
51792;SDS011;37850;53.178;6.376;2023-06-26T03:20:17;13.68;;;9.95;;
51792;SDS011;37850;53.178;6.376;2023-06-26T03:22:42;13.32;;;9.52;;
51792;SDS011;37850;53.178;6.376;2023-06-26T03:25:08;12.55;;;9.18;;
51792;SDS011;37850;53.178;6.376;2023-06-26T03:27:34;12.63;;;9.57;;
51792;SDS011;37850;53.178;6.376;2023-06-26T03:29:59;18.10;;;9.05;;
51792;SDS011;37850;53.178;6.376;2023-06-26T03:32:25;12.98;;;8.70;;
51792;SDS011;37850;53.178;6.376;2023-06-26T03:34:51;11.90;;;8.57;;
51792;SDS011;37850;53.178;6.376;2023-06-26T03:37:18;12.65;;;9.02;;
51792;SDS011;37850;53.178;6.376;2023-06-26T03:39:44;15.10;;;9.27;;
51792;SDS011;37850;53.178;6.376;2023-06-26T03:42:09;11.57;;;8.73;;
51792;SDS011;37850;53.178;6.376;2023-06-26T03:44:35;13.52;;;8.70;;
51792;SDS011;37850;53.178;6.376;2023-06-26T03:47:01;10.50;;;7.90;;
51792;SDS011;37850;53.178;6.376;2023-06-26T03:49:26;12.82;;;8.60;;
51792;SDS011;37850;53.178;6.376;2023-06-26T03:51:52;14.25;;;9.38;;
51792;SDS011;37850;53.178;6.376;2023-06-26T03:54:18;11.95;;;8.55;;
51792;SDS011;37850;53.178;6.376;2023-06-26T03:56:44;14.40;;;8.77;;
51792;SDS011;37850;53.178;6.376;2023-06-26T03:59:09;12.70;;;7.88;;
51792;SDS011;37850;53.178;6.376;2023-06-26T04:01:36;12.93;;;8.20;;
51792;SDS011;37850;53.178;6.376;2023-06-26T04:04:03;10.60;;;7.65;;
51792;SDS011;37850;53.178;6.376;2023-06-26T04:06:28;11.82;;;7.95;;
51792;SDS011;37850;53.178;6.376;2023-06-26T04:08:56;12.55;;;7.90;;
51792;SDS011;37850;53.178;6.376;2023-06-26T04:11:23;19.55;;;7.88;;
51792;SDS011;37850;53.178;6.376;2023-06-26T04:13:49;12.00;;;8.00;;
51792;SDS011;37850;53.178;6.376;2023-06-26T04:16:14;11.25;;;7.72;;
51792;SDS011;37850;53.178;6.376;2023-06-26T04:18:40;12.23;;;8.13;;
51792;SDS011;37850;53.178;6.376;2023-06-26T04:21:07;11.50;;;7.65;;
51792;SDS011;37850;53.178;6.376;2023-06-26T04:23:34;11.25;;;7.00;;
51792;SDS011;37850;53.178;6.376;2023-06-26T04:26:00;11.65;;;7.13;;
51792;SDS011;37850;53.178;6.376;2023-06-26T04:28:27;10.88;;;6.65;;
51792;SDS011;37850;53.178;6.376;2023-06-26T04:30:54;14.05;;;7.18;;
51792;SDS011;37850;53.178;6.376;2023-06-26T04:33:19;15.80;;;7.20;;
51792;SDS011;37850;53.178;6.376;2023-06-26T04:35:45;15.57;;;7.63;;
51792;SDS011;37850;53.178;6.376;2023-06-26T04:38:14;15.57;;;7.68;;
51792;SDS011;37850;53.178;6.376;2023-06-26T04:40:40;13.93;;;7.03;;
51792;SDS011;37850;53.178;6.376;2023-06-26T04:43:07;12.77;;;6.97;;
51792;SDS011;37850;53.178;6.376;2023-06-26T04:45:33;15.05;;;7.18;;
51792;SDS011;37850;53.178;6.376;2023-06-26T04:47:58;15.85;;;7.10;;
51792;SDS011;37850;53.178;6.376;2023-06-26T04:50:25;13.02;;;6.53;;
51792;SDS011;37850;53.178;6.376;2023-06-26T04:52:54;15.68;;;7.53;;
51792;SDS011;37850;53.178;6.376;2023-06-26T04:55:21;16.52;;;8.68;;
51792;SDS011;37850;53.178;6.376;2023-06-26T04:57:49;16.15;;;8.38;;
51792;SDS011;37850;53.178;6.376;2023-06-26T05:00:14;17.73;;;8.52;;
51792;SDS011;37850;53.178;6.376;2023-06-26T05:02:40;21.85;;;9.57;;
51792;SDS011;37850;53.178;6.376;2023-06-26T05:05:06;19.15;;;9.98;;
51792;SDS011;37850;53.178;6.376;2023-06-26T05:07:32;20.52;;;9.77;;
51792;SDS011;37850;53.178;6.376;2023-06-26T05:09:58;18.90;;;9.15;;
51792;SDS011;37850;53.178;6.376;2023-06-26T05:12:24;22.08;;;9.98;;
51792;SDS011;37850;53.178;6.376;2023-06-26T05:14:50;17.52;;;9.68;;
51792;SDS011;37850;53.178;6.376;2023-06-26T05:17:15;16.38;;;8.35;;
51792;SDS011;37850;53.178;6.376;2023-06-26T05:19:41;17.63;;;8.40;;
51792;SDS011;37850;53.178;6.376;2023-06-26T05:22:07;16.85;;;7.28;;
51792;SDS011;37850;53.178;6.376;2023-06-26T05:24:37;17.23;;;6.55;;
51792;SDS011;37850;53.178;6.376;2023-06-26T05:27:04;14.75;;;6.70;;
51792;SDS011;37850;53.178;6.376;2023-06-26T05:29:33;18.60;;;6.45;;
51792;SDS011;37850;53.178;6.376;2023-06-26T05:31:59;18.85;;;6.25;;
51792;SDS011;37850;53.178;6.376;2023-06-26T05:34:26;16.83;;;5.78;;
51792;SDS011;37850;53.178;6.376;2023-06-26T05:36:55;17.15;;;5.72;;
51792;SDS011;37850;53.178;6.376;2023-06-26T05:39:23;12.57;;;5.72;;
51792;SDS011;37850;53.178;6.376;2023-06-26T05:41:50;13.88;;;6.25;;
51792;SDS011;37850;53.178;6.376;2023-06-26T05:44:16;13.95;;;5.90;;
51792;SDS011;37850;53.178;6.376;2023-06-26T05:46:42;14.23;;;5.32;;
51792;SDS011;37850;53.178;6.376;2023-06-26T05:49:08;17.13;;;4.78;;
51792;SDS011;37850;53.178;6.376;2023-06-26T05:51:34;13.50;;;5.22;;
51792;SDS011;37850;53.178;6.376;2023-06-26T05:54:00;20.73;;;5.15;;
51792;SDS011;37850;53.178;6.376;2023-06-26T05:56:26;15.48;;;4.40;;
51792;SDS011;37850;53.178;6.376;2023-06-26T05:58:53;15.45;;;5.20;;
51792;SDS011;37850;53.178;6.376;2023-06-26T06:01:19;14.10;;;4.90;;
51792;SDS011;37850;53.178;6.376;2023-06-26T06:03:45;17.02;;;4.68;;
51792;SDS011;37850;53.178;6.376;2023-06-26T06:06:11;13.43;;;4.63;;
51792;SDS011;37850;53.178;6.376;2023-06-26T06:08:37;14.98;;;4.32;;
51792;SDS011;37850;53.178;6.376;2023-06-26T06:11:03;16.95;;;3.65;;
51792;SDS011;37850;53.178;6.376;2023-06-26T06:13:28;14.27;;;3.92;;
51792;SDS011;37850;53.178;6.376;2023-06-26T06:15:54;14.52;;;3.90;;
51792;SDS011;37850;53.178;6.376;2023-06-26T06:18:20;16.55;;;3.63;;
51792;SDS011;37850;53.178;6.376;2023-06-26T06:20:46;16.35;;;3.70;;
51792;SDS011;37850;53.178;6.376;2023-06-26T06:23:12;12.15;;;3.55;;
51792;SDS011;37850;53.178;6.376;2023-06-26T06:25:38;15.32;;;3.78;;
51792;SDS011;37850;53.178;6.376;2023-06-26T06:28:04;11.48;;;3.47;;
51792;SDS011;37850;53.178;6.376;2023-06-26T06:30:30;13.02;;;3.60;;
51792;SDS011;37850;53.178;6.376;2023-06-26T06:32:57;11.95;;;3.47;;
51792;SDS011;37850;53.178;6.376;2023-06-26T06:35:23;12.70;;;3.33;;
51792;SDS011;37850;53.178;6.376;2023-06-26T06:37:49;12.77;;;2.92;;
51792;SDS011;37850;53.178;6.376;2023-06-26T06:40:15;11.70;;;2.80;;
51792;SDS011;37850;53.178;6.376;2023-06-26T06:42:41;10.40;;;2.88;;
51792;SDS011;37850;53.178;6.376;2023-06-26T06:45:07;11.23;;;2.88;;
51792;SDS011;37850;53.178;6.376;2023-06-26T06:47:33;15.25;;;3.55;;
51792;SDS011;37850;53.178;6.376;2023-06-26T06:49:59;13.70;;;3.45;;
51792;SDS011;37850;53.178;6.376;2023-06-26T06:52:33;15.25;;;3.03;;
51792;SDS011;37850;53.178;6.376;2023-06-26T06:55:03;14.63;;;3.00;;
51792;SDS011;37850;53.178;6.376;2023-06-26T06:57:36;12.82;;;3.00;;
51792;SDS011;37850;53.178;6.376;2023-06-26T07:00:06;10.50;;;2.58;;
51792;SDS011;37850;53.178;6.376;2023-06-26T07:02:34;10.57;;;3.10;;
51792;SDS011;37850;53.178;6.376;2023-06-26T07:05:04;11.52;;;2.92;;
51792;SDS011;37850;53.178;6.376;2023-06-26T07:07:30;10.82;;;2.25;;
51792;SDS011;37850;53.178;6.376;2023-06-26T07:10:01;11.30;;;2.50;;
51792;SDS011;37850;53.178;6.376;2023-06-26T07:12:28;9.57;;;2.40;;
51792;SDS011;37850;53.178;6.376;2023-06-26T07:14:55;8.18;;;2.03;;
51792;SDS011;37850;53.178;6.376;2023-06-26T07:17:22;14.70;;;2.50;;
51792;SDS011;37850;53.178;6.376;2023-06-26T07:19:48;7.07;;;1.80;;
51792;SDS011;37850;53.178;6.376;2023-06-26T07:22:14;10.40;;;2.65;;
51792;SDS011;37850;53.178;6.376;2023-06-26T07:24:40;10.77;;;2.17;;
51792;SDS011;37850;53.178;6.376;2023-06-26T07:27:06;11.60;;;2.60;;
51792;SDS011;37850;53.178;6.376;2023-06-26T07:29:32;8.82;;;2.05;;
51792;SDS011;37850;53.178;6.376;2023-06-26T07:31:58;8.63;;;2.15;;
51792;SDS011;37850;53.178;6.376;2023-06-26T07:34:24;8.98;;;2.03;;
51792;SDS011;37850;53.178;6.376;2023-06-26T07:36:49;8.05;;;2.13;;
51792;SDS011;37850;53.178;6.376;2023-06-26T07:39:15;12.00;;;2.15;;
51792;SDS011;37850;53.178;6.376;2023-06-26T07:41:41;13.80;;;1.95;;
51792;SDS011;37850;53.178;6.376;2023-06-26T07:44:07;7.15;;;2.00;;
51792;SDS011;37850;53.178;6.376;2023-06-26T07:46:32;6.80;;;1.48;;
51792;SDS011;37850;53.178;6.376;2023-06-26T07:48:58;9.32;;;2.10;;
51792;SDS011;37850;53.178;6.376;2023-06-26T07:51:24;7.93;;;2.22;;
51792;SDS011;37850;53.178;6.376;2023-06-26T07:53:50;8.02;;;2.17;;
51792;SDS011;37850;53.178;6.376;2023-06-26T07:56:15;7.63;;;1.67;;
51792;SDS011;37850;53.178;6.376;2023-06-26T07:58:41;8.15;;;2.10;;
51792;SDS011;37850;53.178;6.376;2023-06-26T08:01:07;8.15;;;2.67;;
51792;SDS011;37850;53.178;6.376;2023-06-26T08:03:32;7.88;;;2.00;;
51792;SDS011;37850;53.178;6.376;2023-06-26T08:05:58;6.38;;;1.70;;
51792;SDS011;37850;53.178;6.376;2023-06-26T08:08:24;7.00;;;1.73;;
51792;SDS011;37850;53.178;6.376;2023-06-26T08:10:49;5.95;;;1.50;;
51792;SDS011;37850;53.178;6.376;2023-06-26T08:13:15;8.40;;;1.80;;
51792;SDS011;37850;53.178;6.376;2023-06-26T08:15:41;5.72;;;1.75;;
51792;SDS011;37850;53.178;6.376;2023-06-26T08:18:07;8.23;;;2.22;;
51792;SDS011;37850;53.178;6.376;2023-06-26T08:20:32;7.15;;;1.77;;
51792;SDS011;37850;53.178;6.376;2023-06-26T08:23:00;6.00;;;1.55;;
51792;SDS011;37850;53.178;6.376;2023-06-26T08:25:26;7.43;;;1.75;;
51792;SDS011;37850;53.178;6.376;2023-06-26T08:27:52;6.35;;;1.88;;
51792;SDS011;37850;53.178;6.376;2023-06-26T08:30:19;8.73;;;2.67;;
51792;SDS011;37850;53.178;6.376;2023-06-26T08:32:44;10.30;;;2.00;;
51792;SDS011;37850;53.178;6.376;2023-06-26T08:35:10;6.47;;;1.70;;
51792;SDS011;37850;53.178;6.376;2023-06-26T08:37:36;7.85;;;1.92;;
51792;SDS011;37850;53.178;6.376;2023-06-26T08:40:02;6.53;;;1.73;;
51792;SDS011;37850;53.178;6.376;2023-06-26T08:42:29;6.07;;;2.00;;
51792;SDS011;37850;53.178;6.376;2023-06-26T08:44:55;6.72;;;1.98;;
51792;SDS011;37850;53.178;6.376;2023-06-26T08:47:23;9.40;;;2.13;;
51792;SDS011;37850;53.178;6.376;2023-06-26T08:49:56;4.60;;;1.75;;
51792;SDS011;37850;53.178;6.376;2023-06-26T08:55:57;8.38;;;2.33;;
51792;SDS011;37850;53.178;6.376;2023-06-26T08:58:23;5.85;;;2.10;;
51792;SDS011;37850;53.178;6.376;2023-06-26T09:00:49;6.13;;;1.77;;
51792;SDS011;37850;53.178;6.376;2023-06-26T09:03:15;8.35;;;1.90;;
51792;SDS011;37850;53.178;6.376;2023-06-26T09:05:42;7.95;;;2.17;;
51792;SDS011;37850;53.178;6.376;2023-06-26T09:08:07;7.78;;;2.22;;
51792;SDS011;37850;53.178;6.376;2023-06-26T09:10:33;6.00;;;1.73;;
51792;SDS011;37850;53.178;6.376;2023-06-26T09:12:59;4.88;;;1.50;;
51792;SDS011;37850;53.178;6.376;2023-06-26T09:15:36;8.40;;;1.65;;
51792;SDS011;37850;53.178;6.376;2023-06-26T09:18:11;7.15;;;1.92;;
51792;SDS011;37850;53.178;6.376;2023-06-26T09:20:38;7.30;;;1.60;;
51792;SDS011;37850;53.178;6.376;2023-06-26T09:23:04;4.70;;;1.67;;
51792;SDS011;37850;53.178;6.376;2023-06-26T09:25:30;4.72;;;1.60;;
51792;SDS011;37850;53.178;6.376;2023-06-26T09:27:56;7.35;;;1.75;;
51792;SDS011;37850;53.178;6.376;2023-06-26T09:30:22;6.85;;;2.10;;
51792;SDS011;37850;53.178;6.376;2023-06-26T09:32:48;6.35;;;2.13;;
51792;SDS011;37850;53.178;6.376;2023-06-26T09:35:15;7.90;;;2.42;;
51792;SDS011;37850;53.178;6.376;2023-06-26T09:37:42;7.50;;;2.13;;
51792;SDS011;37850;53.178;6.376;2023-06-26T09:40:08;6.40;;;2.00;;
51792;SDS011;37850;53.178;6.376;2023-06-26T09:42:34;8.18;;;2.13;;
51792;SDS011;37850;53.178;6.376;2023-06-26T09:45:01;9.02;;;2.35;;
51792;SDS011;37850;53.178;6.376;2023-06-26T09:47:29;7.75;;;2.70;;
51792;SDS011;37850;53.178;6.376;2023-06-26T09:49:57;9.05;;;2.63;;
51792;SDS011;37850;53.178;6.376;2023-06-26T09:52:25;9.88;;;2.60;;
51792;SDS011;37850;53.178;6.376;2023-06-26T09:55:06;8.73;;;2.40;;
51792;SDS011;37850;53.178;6.376;2023-06-26T09:57:35;7.15;;;2.00;;
51792;SDS011;37850;53.178;6.376;2023-06-26T10:00:02;9.68;;;2.85;;
51792;SDS011;37850;53.178;6.376;2023-06-26T10:02:29;8.00;;;2.25;;
51792;SDS011;37850;53.178;6.376;2023-06-26T10:04:55;9.70;;;2.20;;
51792;SDS011;37850;53.178;6.376;2023-06-26T10:07:21;6.18;;;2.03;;
51792;SDS011;37850;53.178;6.376;2023-06-26T10:09:48;6.90;;;2.28;;
51792;SDS011;37850;53.178;6.376;2023-06-26T10:12:28;6.63;;;2.30;;
51792;SDS011;37850;53.178;6.376;2023-06-26T10:14:56;7.45;;;2.17;;
51792;SDS011;37850;53.178;6.376;2023-06-26T10:17:23;5.88;;;2.22;;
51792;SDS011;37850;53.178;6.376;2023-06-26T10:19:52;5.37;;;2.17;;
51792;SDS011;37850;53.178;6.376;2023-06-26T10:22:21;6.53;;;2.17;;
51792;SDS011;37850;53.178;6.376;2023-06-26T10:24:54;7.78;;;2.33;;
51792;SDS011;37850;53.178;6.376;2023-06-26T10:27:24;6.00;;;2.60;;
51792;SDS011;37850;53.178;6.376;2023-06-26T10:29:56;9.25;;;2.47;;
51792;SDS011;37850;53.178;6.376;2023-06-26T10:32:25;8.80;;;2.40;;
51792;SDS011;37850;53.178;6.376;2023-06-26T10:34:52;8.55;;;2.90;;
51792;SDS011;37850;53.178;6.376;2023-06-26T10:37:20;7.53;;;2.33;;
51792;SDS011;37850;53.178;6.376;2023-06-26T10:39:47;5.10;;;2.40;;
51792;SDS011;37850;53.178;6.376;2023-06-26T10:42:20;8.35;;;2.45;;
51792;SDS011;37850;53.178;6.376;2023-06-26T10:45:08;7.50;;;2.33;;
51792;SDS011;37850;53.178;6.376;2023-06-26T10:47:36;7.65;;;1.92;;
51792;SDS011;37850;53.178;6.376;2023-06-26T10:50:18;6.13;;;1.85;;
51792;SDS011;37850;53.178;6.376;2023-06-26T10:52:46;10.80;;;1.95;;
51792;SDS011;37850;53.178;6.376;2023-06-26T11:03:43;6.60;;;1.98;;
51792;SDS011;37850;53.178;6.376;2023-06-26T11:06:12;7.13;;;1.77;;
51792;SDS011;37850;53.178;6.376;2023-06-26T11:11:15;8.88;;;1.90;;
51792;SDS011;37850;53.178;6.376;2023-06-26T11:13:41;7.00;;;1.90;;
51792;SDS011;37850;53.178;6.376;2023-06-26T11:16:10;8.82;;;1.92;;
51792;SDS011;37850;53.178;6.376;2023-06-26T11:18:37;8.20;;;1.67;;
51792;SDS011;37850;53.178;6.376;2023-06-26T11:21:12;7.85;;;2.13;;
51792;SDS011;37850;53.178;6.376;2023-06-26T11:23:40;7.38;;;1.65;;
51792;SDS011;37850;53.178;6.376;2023-06-26T11:28:46;5.78;;;1.40;;
51792;SDS011;37850;53.178;6.376;2023-06-26T11:31:28;9.45;;;1.70;;
51792;SDS011;37850;53.178;6.376;2023-06-26T11:34:05;6.70;;;1.60;;
51792;SDS011;37850;53.178;6.376;2023-06-26T11:36:33;6.63;;;1.52;;
51792;SDS011;37850;53.178;6.376;2023-06-26T11:39:02;7.25;;;1.60;;
51792;SDS011;37850;53.178;6.376;2023-06-26T11:41:33;5.45;;;1.30;;
51792;SDS011;37850;53.178;6.376;2023-06-26T11:44:03;6.88;;;1.60;;
51792;SDS011;37850;53.178;6.376;2023-06-26T11:46:34;5.53;;;1.48;;
51792;SDS011;37850;53.178;6.376;2023-06-26T11:49:04;7.07;;;1.90;;
51792;SDS011;37850;53.178;6.376;2023-06-26T11:51:30;6.90;;;1.30;;
51792;SDS011;37850;53.178;6.376;2023-06-26T11:53:56;9.70;;;1.48;;
51792;SDS011;37850;53.178;6.376;2023-06-26T11:56:22;6.18;;;1.50;;
51792;SDS011;37850;53.178;6.376;2023-06-26T11:59:07;5.68;;;1.48;;
51792;SDS011;37850;53.178;6.376;2023-06-26T12:01:40;5.57;;;1.63;;
51792;SDS011;37850;53.178;6.376;2023-06-26T12:04:11;7.75;;;1.52;;
51792;SDS011;37850;53.178;6.376;2023-06-26T12:06:39;8.15;;;1.80;;
51792;SDS011;37850;53.178;6.376;2023-06-26T12:09:07;6.65;;;1.33;;
51792;SDS011;37850;53.178;6.376;2023-06-26T12:11:36;8.35;;;1.83;;
51792;SDS011;37850;53.178;6.376;2023-06-26T12:14:04;9.70;;;1.83;;
51792;SDS011;37850;53.178;6.376;2023-06-26T12:16:31;8.48;;;1.80;;
51792;SDS011;37850;53.178;6.376;2023-06-26T12:18:59;9.70;;;1.90;;
51792;SDS011;37850;53.178;6.376;2023-06-26T12:24:09;9.65;;;1.95;;
51792;SDS011;37850;53.178;6.376;2023-06-26T12:26:41;8.93;;;1.48;;
51792;SDS011;37850;53.178;6.376;2023-06-26T12:29:09;9.18;;;1.83;;
51792;SDS011;37850;53.178;6.376;2023-06-26T12:31:39;7.15;;;1.33;;
51792;SDS011;37850;53.178;6.376;2023-06-26T12:34:09;7.47;;;1.85;;
51792;SDS011;37850;53.178;6.376;2023-06-26T12:36:46;9.15;;;1.77;;
51792;SDS011;37850;53.178;6.376;2023-06-26T12:39:20;12.20;;;2.13;;
51792;SDS011;37850;53.178;6.376;2023-06-26T12:41:51;12.00;;;2.15;;
51792;SDS011;37850;53.178;6.376;2023-06-26T12:44:19;7.45;;;1.50;;
51792;SDS011;37850;53.178;6.376;2023-06-26T12:46:49;6.15;;;1.58;;
51792;SDS011;37850;53.178;6.376;2023-06-26T12:49:18;9.38;;;1.70;;
51792;SDS011;37850;53.178;6.376;2023-06-26T12:51:44;13.35;;;1.85;;
51792;SDS011;37850;53.178;6.376;2023-06-26T12:54:10;5.28;;;1.50;;
51792;SDS011;37850;53.178;6.376;2023-06-26T12:56:36;7.30;;;1.83;;
51792;SDS011;37850;53.178;6.376;2023-06-26T12:59:02;5.90;;;1.60;;
51792;SDS011;37850;53.178;6.376;2023-06-26T13:01:27;5.03;;;1.25;;
51792;SDS011;37850;53.178;6.376;2023-06-26T13:03:53;7.72;;;1.67;;
51792;SDS011;37850;53.178;6.376;2023-06-26T13:06:19;8.50;;;1.80;;
51792;SDS011;37850;53.178;6.376;2023-06-26T13:08:46;8.52;;;1.50;;
51792;SDS011;37850;53.178;6.376;2023-06-26T13:11:12;5.63;;;1.35;;
51792;SDS011;37850;53.178;6.376;2023-06-26T13:13:38;11.23;;;1.52;;
51792;SDS011;37850;53.178;6.376;2023-06-26T13:16:04;8.35;;;1.70;;
51792;SDS011;37850;53.178;6.376;2023-06-26T13:18:30;7.45;;;1.70;;
51792;SDS011;37850;53.178;6.376;2023-06-26T13:20:56;8.65;;;1.70;;
51792;SDS011;37850;53.178;6.376;2023-06-26T13:23:21;7.25;;;1.67;;
51792;SDS011;37850;53.178;6.376;2023-06-26T13:25:47;7.90;;;1.60;;
51792;SDS011;37850;53.178;6.376;2023-06-26T13:28:13;10.07;;;1.80;;
51792;SDS011;37850;53.178;6.376;2023-06-26T13:30:38;9.48;;;2.17;;
51792;SDS011;37850;53.178;6.376;2023-06-26T13:33:05;5.82;;;1.65;;
51792;SDS011;37850;53.178;6.376;2023-06-26T13:35:31;6.18;;;1.30;;
51792;SDS011;37850;53.178;6.376;2023-06-26T13:37:57;7.85;;;1.50;;
51792;SDS011;37850;53.178;6.376;2023-06-26T13:40:23;7.05;;;1.42;;
51792;SDS011;37850;53.178;6.376;2023-06-26T13:42:48;6.28;;;1.50;;
51792;SDS011;37850;53.178;6.376;2023-06-26T13:45:14;6.20;;;1.48;;
51792;SDS011;37850;53.178;6.376;2023-06-26T13:47:40;8.68;;;1.73;;
51792;SDS011;37850;53.178;6.376;2023-06-26T13:50:07;6.40;;;1.52;;
51792;SDS011;37850;53.178;6.376;2023-06-26T13:52:34;7.93;;;1.30;;
51792;SDS011;37850;53.178;6.376;2023-06-26T13:55:00;4.90;;;1.23;;
51792;SDS011;37850;53.178;6.376;2023-06-26T13:57:29;5.60;;;1.50;;
51792;SDS011;37850;53.178;6.376;2023-06-26T13:59:55;12.57;;;2.10;;
51792;SDS011;37850;53.178;6.376;2023-06-26T14:02:22;8.45;;;1.60;;
51792;SDS011;37850;53.178;6.376;2023-06-26T14:04:47;6.85;;;2.53;;
51792;SDS011;37850;53.178;6.376;2023-06-26T14:07:13;6.75;;;1.80;;
51792;SDS011;37850;53.178;6.376;2023-06-26T14:09:39;10.30;;;1.95;;
51792;SDS011;37850;53.178;6.376;2023-06-26T14:12:05;12.23;;;1.80;;
51792;SDS011;37850;53.178;6.376;2023-06-26T14:14:32;10.82;;;1.90;;
51792;SDS011;37850;53.178;6.376;2023-06-26T14:16:58;11.45;;;2.05;;
51792;SDS011;37850;53.178;6.376;2023-06-26T14:19:24;9.15;;;1.60;;
51792;SDS011;37850;53.178;6.376;2023-06-26T14:21:51;7.40;;;1.50;;
51792;SDS011;37850;53.178;6.376;2023-06-26T14:24:17;13.10;;;1.70;;
51792;SDS011;37850;53.178;6.376;2023-06-26T14:26:43;4.82;;;1.17;;
51792;SDS011;37850;53.178;6.376;2023-06-26T14:29:08;6.38;;;1.50;;
51792;SDS011;37850;53.178;6.376;2023-06-26T14:31:34;6.05;;;1.40;;
51792;SDS011;37850;53.178;6.376;2023-06-26T14:34:00;10.95;;;1.40;;
51792;SDS011;37850;53.178;6.376;2023-06-26T14:36:27;6.80;;;1.60;;
51792;SDS011;37850;53.178;6.376;2023-06-26T14:38:56;6.65;;;1.95;;
51792;SDS011;37850;53.178;6.376;2023-06-26T14:41:21;5.18;;;1.40;;
51792;SDS011;37850;53.178;6.376;2023-06-26T14:43:47;8.05;;;1.15;;
51792;SDS011;37850;53.178;6.376;2023-06-26T14:46:13;8.50;;;1.75;;
51792;SDS011;37850;53.178;6.376;2023-06-26T14:48:39;7.65;;;1.80;;
51792;SDS011;37850;53.178;6.376;2023-06-26T14:51:05;7.53;;;1.38;;
51792;SDS011;37850;53.178;6.376;2023-06-26T14:53:30;7.78;;;1.52;;
51792;SDS011;37850;53.178;6.376;2023-06-26T14:55:56;7.47;;;1.20;;
51792;SDS011;37850;53.178;6.376;2023-06-26T14:58:22;9.20;;;1.88;;
51792;SDS011;37850;53.178;6.376;2023-06-26T15:00:48;8.43;;;1.73;;
51792;SDS011;37850;53.178;6.376;2023-06-26T15:03:14;6.50;;;1.40;;
51792;SDS011;37850;53.178;6.376;2023-06-26T15:05:39;10.88;;;1.40;;
51792;SDS011;37850;53.178;6.376;2023-06-26T15:08:05;6.25;;;1.20;;